sensor_id;sensor_type;location;lat;lon;timestamp;pressure;altitude;pressure_sealevel;temperature;humidity
65329;BME280;51941;52.210;5.158;2024-01-15T00:02:06;100317.81;;;0.75;79.76
65329;BME280;51941;52.210;5.158;2024-01-15T00:04:36;100314.69;;;0.73;79.79
65329;BME280;51941;52.210;5.158;2024-01-15T00:07:03;100308.94;;;0.71;79.27
65329;BME280;51941;52.210;5.158;2024-01-15T00:09:30;100307.69;;;0.68;78.90
65329;BME280;51941;52.210;5.158;2024-01-15T00:11:56;100306.47;;;0.66;78.56
65329;BME280;51941;52.210;5.158;2024-01-15T00:14:23;100302.25;;;0.65;78.71
65329;BME280;51941;52.210;5.158;2024-01-15T00:16:50;100299.59;;;0.65;78.90
65329;BME280;51941;52.210;5.158;2024-01-15T00:19:18;100297.72;;;0.65;78.63
65329;BME280;51941;52.210;5.158;2024-01-15T00:21:45;100295.06;;;0.65;79.00
65329;BME280;51941;52.210;5.158;2024-01-15T00:24:11;100291.66;;;0.65;78.65
65329;BME280;51941;52.210;5.158;2024-01-15T00:26:38;100282.94;;;0.64;78.96
65329;BME280;51941;52.210;5.158;2024-01-15T00:29:06;100281.34;;;0.63;78.75
65329;BME280;51941;52.210;5.158;2024-01-15T00:31:33;100278.72;;;0.63;78.89
65329;BME280;51941;52.210;5.158;2024-01-15T00:33:59;100271.41;;;0.60;78.52
65329;BME280;51941;52.210;5.158;2024-01-15T00:36:27;100274.06;;;0.60;78.39
65329;BME280;51941;52.210;5.158;2024-01-15T00:38:54;100274.22;;;0.55;78.49
65329;BME280;51941;52.210;5.158;2024-01-15T00:41:21;100276.09;;;0.54;78.70
65329;BME280;51941;52.210;5.158;2024-01-15T00:43:48;100269.72;;;0.55;79.21
65329;BME280;51941;52.210;5.158;2024-01-15T00:46:15;100268.31;;;0.49;78.55
65329;BME280;51941;52.210;5.158;2024-01-15T00:48:42;100267.53;;;0.49;78.81
65329;BME280;51941;52.210;5.158;2024-01-15T00:51:09;100261.16;;;0.50;79.18
65329;BME280;51941;52.210;5.158;2024-01-15T00:53:37;100271.75;;;0.50;78.94
65329;BME280;51941;52.210;5.158;2024-01-15T00:56:04;100264.25;;;0.43;79.10
65329;BME280;51941;52.210;5.158;2024-01-15T00:58:30;100262.06;;;0.45;78.96
65329;BME280;51941;52.210;5.158;2024-01-15T01:00:57;100253.03;;;0.46;79.37
65329;BME280;51941;52.210;5.158;2024-01-15T01:03:23;100251.81;;;0.44;79.17
65329;BME280;51941;52.210;5.158;2024-01-15T01:05:50;100250.41;;;0.46;79.19
65329;BME280;51941;52.210;5.158;2024-01-15T01:08:17;100251.31;;;0.50;79.67
65329;BME280;51941;52.210;5.158;2024-01-15T01:10:45;100249.44;;;0.51;79.50
65329;BME280;51941;52.210;5.158;2024-01-15T01:13:12;100256.31;;;0.52;79.37
65329;BME280;51941;52.210;5.158;2024-01-15T01:15:39;100257.84;;;0.53;79.79
65329;BME280;51941;52.210;5.158;2024-01-15T01:18:05;100250.66;;;0.53;79.55
65329;BME280;51941;52.210;5.158;2024-01-15T01:20:32;100249.28;;;0.56;79.84
65329;BME280;51941;52.210;5.158;2024-01-15T01:22:59;100249.28;;;0.56;80.05
65329;BME280;51941;52.210;5.158;2024-01-15T01:25:26;100250.66;;;0.53;80.25
65329;BME280;51941;52.210;5.158;2024-01-15T01:27:54;100251.75;;;0.61;80.23
65329;BME280;51941;52.210;5.158;2024-01-15T01:30:20;100239.41;;;0.65;80.19
65329;BME280;51941;52.210;5.158;2024-01-15T01:32:47;100236.28;;;0.72;80.04
65329;BME280;51941;52.210;5.158;2024-01-15T01:35:14;100246.69;;;0.77;80.21
65329;BME280;51941;52.210;5.158;2024-01-15T01:37:40;100244.66;;;0.83;80.40
65329;BME280;51941;52.210;5.158;2024-01-15T01:40:08;100248.69;;;0.89;80.73
65329;BME280;51941;52.210;5.158;2024-01-15T01:42:35;100238.81;;;0.98;80.45
65329;BME280;51941;52.210;5.158;2024-01-15T01:45:04;100243.00;;;1.08;80.20
65329;BME280;51941;52.210;5.158;2024-01-15T01:47:31;100243.31;;;1.06;79.68
65329;BME280;51941;52.210;5.158;2024-01-15T01:49:58;100247.66;;;1.11;79.95
65329;BME280;51941;52.210;5.158;2024-01-15T01:52:25;100242.63;;;1.18;79.56
65329;BME280;51941;52.210;5.158;2024-01-15T01:54:52;100253.97;;;1.27;79.20
65329;BME280;51941;52.210;5.158;2024-01-15T01:57:19;100248.50;;;1.32;79.60
65329;BME280;51941;52.210;5.158;2024-01-15T01:59:46;100263.75;;;1.35;79.49
65329;BME280;51941;52.210;5.158;2024-01-15T02:02:15;100272.00;;;1.43;78.67
65329;BME280;51941;52.210;5.158;2024-01-15T02:04:43;100263.25;;;1.42;79.80
65329;BME280;51941;52.210;5.158;2024-01-15T02:07:11;100274.56;;;1.30;79.97
65329;BME280;51941;52.210;5.158;2024-01-15T02:09:38;100271.47;;;1.28;80.16
65329;BME280;51941;52.210;5.158;2024-01-15T02:12:05;100258.09;;;1.16;80.30
65329;BME280;51941;52.210;5.158;2024-01-15T02:14:32;100259.19;;;1.15;81.10
65329;BME280;51941;52.210;5.158;2024-01-15T02:16:59;100256.13;;;1.04;81.05
65329;BME280;51941;52.210;5.158;2024-01-15T02:19:28;100257.69;;;1.05;81.15
65329;BME280;51941;52.210;5.158;2024-01-15T02:21:54;100237.09;;;1.02;80.82
65329;BME280;51941;52.210;5.158;2024-01-15T02:24:22;100242.91;;;0.95;81.56
65329;BME280;51941;52.210;5.158;2024-01-15T02:26:49;100245.69;;;0.99;81.31
65329;BME280;51941;52.210;5.158;2024-01-15T02:29:16;100248.22;;;0.95;82.12
65329;BME280;51941;52.210;5.158;2024-01-15T02:31:43;100247.56;;;0.98;81.40
65329;BME280;51941;52.210;5.158;2024-01-15T02:34:10;100246.47;;;1.00;81.29
65329;BME280;51941;52.210;5.158;2024-01-15T02:36:37;100236.84;;;0.95;82.17
65329;BME280;51941;52.210;5.158;2024-01-15T02:39:04;100243.50;;;1.01;81.46
65329;BME280;51941;52.210;5.158;2024-01-15T02:41:32;100236.63;;;1.00;82.44
65329;BME280;51941;52.210;5.158;2024-01-15T02:43:58;100242.25;;;0.98;82.96
65329;BME280;51941;52.210;5.158;2024-01-15T02:46:25;100241.31;;;1.03;82.86
65329;BME280;51941;52.210;5.158;2024-01-15T02:48:55;100233.81;;;1.05;82.32
65329;BME280;51941;52.210;5.158;2024-01-15T02:51:22;100237.22;;;1.06;82.26
65329;BME280;51941;52.210;5.158;2024-01-15T02:53:49;100233.31;;;1.12;81.92
65329;BME280;51941;52.210;5.158;2024-01-15T02:56:16;100233.03;;;1.05;82.34
65329;BME280;51941;52.210;5.158;2024-01-15T02:58:44;100232.38;;;1.08;82.16
65329;BME280;51941;52.210;5.158;2024-01-15T03:01:11;100220.25;;;1.07;82.25
65329;BME280;51941;52.210;5.158;2024-01-15T03:03:39;100216.66;;;1.03;82.01
65329;BME280;51941;52.210;5.158;2024-01-15T03:06:06;100220.41;;;1.02;81.82
65329;BME280;51941;52.210;5.158;2024-01-15T03:08:33;100222.59;;;1.00;81.73
65329;BME280;51941;52.210;5.158;2024-01-15T03:11:00;100221.69;;;0.95;81.93
65329;BME280;51941;52.210;5.158;2024-01-15T03:13:27;100223.13;;;0.93;82.04
65329;BME280;51941;52.210;5.158;2024-01-15T03:15:55;100228.41;;;0.93;82.30
65329;BME280;51941;52.210;5.158;2024-01-15T03:18:22;100227.16;;;0.90;82.31
65329;BME280;51941;52.210;5.158;2024-01-15T03:20:48;100221.56;;;0.92;82.62
65329;BME280;51941;52.210;5.158;2024-01-15T03:23:15;100220.59;;;0.96;82.80
65329;BME280;51941;52.210;5.158;2024-01-15T03:25:41;100221.19;;;1.02;82.53
65329;BME280;51941;52.210;5.158;2024-01-15T03:28:08;100245.03;;;1.02;82.42
65329;BME280;51941;52.210;5.158;2024-01-15T03:30:35;100251.94;;;0.94;82.68
65329;BME280;51941;52.210;5.158;2024-01-15T03:33:04;100245.97;;;1.06;82.30
65329;BME280;51941;52.210;5.158;2024-01-15T03:35:30;100231.41;;;1.12;82.07
65329;BME280;51941;52.210;5.158;2024-01-15T03:37:57;100216.75;;;1.15;81.93
65329;BME280;51941;52.210;5.158;2024-01-15T03:40:24;100213.00;;;1.16;81.48
65329;BME280;51941;52.210;5.158;2024-01-15T03:42:51;100215.84;;;1.11;81.62
65329;BME280;51941;52.210;5.158;2024-01-15T03:45:17;100204.97;;;1.04;81.78
65329;BME280;51941;52.210;5.158;2024-01-15T03:47:44;100200.16;;;0.97;81.85
65329;BME280;51941;52.210;5.158;2024-01-15T03:50:12;100198.00;;;0.90;81.74
65329;BME280;51941;52.210;5.158;2024-01-15T03:52:38;100204.59;;;0.84;81.90
65329;BME280;51941;52.210;5.158;2024-01-15T03:55:06;100199.00;;;0.77;82.04
65329;BME280;51941;52.210;5.158;2024-01-15T03:57:32;100195.31;;;0.69;82.23
65329;BME280;51941;52.210;5.158;2024-01-15T03:59:59;100189.56;;;0.67;82.47
65329;BME280;51941;52.210;5.158;2024-01-15T04:02:26;100189.41;;;0.64;82.27
65329;BME280;51941;52.210;5.158;2024-01-15T04:04:52;100188.03;;;0.57;82.55
65329;BME280;51941;52.210;5.158;2024-01-15T04:07:20;100190.06;;;0.52;82.49
65329;BME280;51941;52.210;5.158;2024-01-15T04:09:47;100183.41;;;0.46;82.35
65329;BME280;51941;52.210;5.158;2024-01-15T04:12:14;100187.44;;;0.43;82.53
65329;BME280;51941;52.210;5.158;2024-01-15T04:14:40;100179.50;;;0.43;82.75
65329;BME280;51941;52.210;5.158;2024-01-15T04:17:07;100178.41;;;0.44;82.65
65329;BME280;51941;52.210;5.158;2024-01-15T04:19:34;100173.13;;;0.44;82.70
65329;BME280;51941;52.210;5.158;2024-01-15T04:22:01;100173.13;;;0.44;82.57
65329;BME280;51941;52.210;5.158;2024-01-15T04:24:32;100172.34;;;0.44;82.97
65329;BME280;51941;52.210;5.158;2024-01-15T04:26:59;100176.69;;;0.48;82.79
65329;BME280;51941;52.210;5.158;2024-01-15T04:29:26;100172.75;;;0.54;82.94
65329;BME280;51941;52.210;5.158;2024-01-15T04:31:53;100166.19;;;0.61;82.75
65329;BME280;51941;52.210;5.158;2024-01-15T04:34:19;100162.56;;;0.65;82.66
65329;BME280;51941;52.210;5.158;2024-01-15T04:36:46;100168.47;;;0.71;82.30
65329;BME280;51941;52.210;5.158;2024-01-15T04:39:13;100170.81;;;0.72;81.83
65329;BME280;51941;52.210;5.158;2024-01-15T04:41:41;100175.28;;;0.81;82.20
65329;BME280;51941;52.210;5.158;2024-01-15T04:44:07;100174.69;;;0.75;82.25
65329;BME280;51941;52.210;5.158;2024-01-15T04:46:34;100174.69;;;0.75;81.76
65329;BME280;51941;52.210;5.158;2024-01-15T04:49:01;100175.13;;;0.77;81.56
65329;BME280;51941;52.210;5.158;2024-01-15T04:51:27;100165.78;;;0.80;81.52
65329;BME280;51941;52.210;5.158;2024-01-15T04:53:54;100161.19;;;0.89;81.69
65329;BME280;51941;52.210;5.158;2024-01-15T04:56:21;100153.25;;;0.89;81.27
65329;BME280;51941;52.210;5.158;2024-01-15T04:58:49;100151.19;;;0.94;81.60
65329;BME280;51941;52.210;5.158;2024-01-15T05:01:16;100146.03;;;0.98;81.51
65329;BME280;51941;52.210;5.158;2024-01-15T05:03:42;100152.91;;;0.99;81.43
65329;BME280;51941;52.210;5.158;2024-01-15T05:06:09;100151.53;;;0.93;81.35
65329;BME280;51941;52.210;5.158;2024-01-15T05:08:36;100145.75;;;0.91;81.60
65329;BME280;51941;52.210;5.158;2024-01-15T05:11:03;100145.63;;;0.87;82.23
65329;BME280;51941;52.210;5.158;2024-01-15T05:13:30;100147.63;;;0.90;82.03
65329;BME280;51941;52.210;5.158;2024-01-15T05:15:58;100141.56;;;0.90;82.05
65329;BME280;51941;52.210;5.158;2024-01-15T05:18:25;100138.13;;;0.89;82.44
65329;BME280;51941;52.210;5.158;2024-01-15T05:20:52;100139.03;;;0.93;82.56
65329;BME280;51941;52.210;5.158;2024-01-15T05:23:18;100143.69;;;0.96;82.63
65329;BME280;51941;52.210;5.158;2024-01-15T05:25:45;100150.09;;;0.95;82.50
65329;BME280;51941;52.210;5.158;2024-01-15T05:28:12;100143.38;;;0.98;82.43
65329;BME280;51941;52.210;5.158;2024-01-15T05:30:42;100146.47;;;1.00;82.28
65329;BME280;51941;52.210;5.158;2024-01-15T05:33:13;100154.13;;;1.02;82.26
65329;BME280;51941;52.210;5.158;2024-01-15T05:35:40;100139.50;;;0.95;82.31
65329;BME280;51941;52.210;5.158;2024-01-15T05:38:07;100144.34;;;0.93;82.85
65329;BME280;51941;52.210;5.158;2024-01-15T05:40:33;100146.34;;;0.96;82.83
65329;BME280;51941;52.210;5.158;2024-01-15T05:43:00;100145.25;;;0.97;82.75
65329;BME280;51941;52.210;5.158;2024-01-15T05:45:27;100145.06;;;1.03;82.92
65329;BME280;51941;52.210;5.158;2024-01-15T05:47:53;100153.81;;;1.03;82.92
65329;BME280;51941;52.210;5.158;2024-01-15T05:50:23;100164.72;;;1.02;82.60
65329;BME280;51941;52.210;5.158;2024-01-15T05:52:49;100171.41;;;1.08;82.27
65329;BME280;51941;52.210;5.158;2024-01-15T05:55:17;100164.72;;;1.02;82.56
65329;BME280;51941;52.210;5.158;2024-01-15T05:57:44;100172.69;;;1.02;82.26
65329;BME280;51941;52.210;5.158;2024-01-15T06:00:11;100169.13;;;0.97;82.18
65329;BME280;51941;52.210;5.158;2024-01-15T06:02:39;100157.47;;;0.90;81.91
65329;BME280;51941;52.210;5.158;2024-01-15T06:05:06;100154.34;;;0.88;82.30
65329;BME280;51941;52.210;5.158;2024-01-15T06:07:35;100139.53;;;0.87;82.28
65329;BME280;51941;52.210;5.158;2024-01-15T06:10:01;100130.69;;;0.83;82.44
65329;BME280;51941;52.210;5.158;2024-01-15T06:12:28;100134.88;;;0.84;82.64
65329;BME280;51941;52.210;5.158;2024-01-15T06:14:55;100136.88;;;0.87;82.68
65329;BME280;51941;52.210;5.158;2024-01-15T06:17:21;100141.88;;;0.88;82.70
65329;BME280;51941;52.210;5.158;2024-01-15T06:19:48;100145.50;;;0.84;82.54
65329;BME280;51941;52.210;5.158;2024-01-15T06:22:15;100135.81;;;0.88;82.39
65329;BME280;51941;52.210;5.158;2024-01-15T06:24:43;100140.78;;;0.89;82.77
65329;BME280;51941;52.210;5.158;2024-01-15T06:27:09;100133.91;;;0.88;82.51
65329;BME280;51941;52.210;5.158;2024-01-15T06:29:38;100129.53;;;0.92;82.34
65329;BME280;51941;52.210;5.158;2024-01-15T06:32:05;100132.38;;;0.87;82.30
65329;BME280;51941;52.210;5.158;2024-01-15T06:34:31;100135.03;;;0.87;82.23
65329;BME280;51941;52.210;5.158;2024-01-15T06:36:58;100127.56;;;0.81;82.59
65329;BME280;51941;52.210;5.158;2024-01-15T06:39:24;100126.34;;;0.78;82.50
65329;BME280;51941;52.210;5.158;2024-01-15T06:41:52;100126.34;;;0.78;82.75
65329;BME280;51941;52.210;5.158;2024-01-15T06:44:19;100127.13;;;0.78;82.88
65329;BME280;51941;52.210;5.158;2024-01-15T06:46:47;100118.22;;;0.83;82.88
65329;BME280;51941;52.210;5.158;2024-01-15T06:49:14;100117.88;;;0.85;82.51
65329;BME280;51941;52.210;5.158;2024-01-15T06:51:41;100119.00;;;0.84;82.37
65329;BME280;51941;52.210;5.158;2024-01-15T06:54:08;100120.06;;;0.83;82.75
65329;BME280;51941;52.210;5.158;2024-01-15T06:56:34;100136.13;;;0.86;82.68
65329;BME280;51941;52.210;5.158;2024-01-15T06:59:03;100150.34;;;0.82;82.96
65329;BME280;51941;52.210;5.158;2024-01-15T07:01:30;100153.16;;;0.76;82.63
65329;BME280;51941;52.210;5.158;2024-01-15T07:03:57;100166.84;;;0.57;83.24
65329;BME280;51941;52.210;5.158;2024-01-15T07:06:23;100161.03;;;0.64;83.25
65329;BME280;51941;52.210;5.158;2024-01-15T07:08:50;100147.16;;;0.67;83.07
65329;BME280;51941;52.210;5.158;2024-01-15T07:11:17;100144.97;;;0.69;83.06
65329;BME280;51941;52.210;5.158;2024-01-15T07:13:43;100144.63;;;0.71;83.30
65329;BME280;51941;52.210;5.158;2024-01-15T07:16:12;100145.06;;;0.73;83.12
65329;BME280;51941;52.210;5.158;2024-01-15T07:18:38;100150.50;;;0.76;82.97
65329;BME280;51941;52.210;5.158;2024-01-15T07:21:05;100149.09;;;0.79;82.62
65329;BME280;51941;52.210;5.158;2024-01-15T07:23:32;100141.34;;;0.74;83.01
65329;BME280;51941;52.210;5.158;2024-01-15T07:25:58;100141.03;;;0.75;82.87
65329;BME280;51941;52.210;5.158;2024-01-15T07:28:25;100130.06;;;0.77;82.91
65329;BME280;51941;52.210;5.158;2024-01-15T07:30:52;100137.56;;;0.75;83.28
65329;BME280;51941;52.210;5.158;2024-01-15T07:33:20;100142.38;;;0.82;83.11
65329;BME280;51941;52.210;5.158;2024-01-15T07:35:47;100147.94;;;0.89;82.93
65329;BME280;51941;52.210;5.158;2024-01-15T07:38:13;100141.88;;;0.88;82.78
65329;BME280;51941;52.210;5.158;2024-01-15T07:40:40;100146.09;;;0.89;82.31
65329;BME280;51941;52.210;5.158;2024-01-15T07:43:07;100134.88;;;0.84;82.67
65329;BME280;51941;52.210;5.158;2024-01-15T07:45:33;100135.81;;;0.88;82.37
65329;BME280;51941;52.210;5.158;2024-01-15T07:48:00;100138.31;;;0.84;82.40
65329;BME280;51941;52.210;5.158;2024-01-15T07:50:30;100135.34;;;0.86;82.41
65329;BME280;51941;52.210;5.158;2024-01-15T07:52:57;100133.16;;;0.88;82.87
65329;BME280;51941;52.210;5.158;2024-01-15T07:55:24;100131.59;;;0.87;82.58
65329;BME280;51941;52.210;5.158;2024-01-15T07:57:50;100135.97;;;0.83;82.36
65329;BME280;51941;52.210;5.158;2024-01-15T08:00:19;100133.19;;;0.79;82.44
65329;BME280;51941;52.210;5.158;2024-01-15T08:02:46;100137.25;;;0.76;82.40
65329;BME280;51941;52.210;5.158;2024-01-15T08:05:13;100133.69;;;0.72;82.51
65329;BME280;51941;52.210;5.158;2024-01-15T08:07:41;100134.81;;;0.71;82.83
65329;BME280;51941;52.210;5.158;2024-01-15T08:10:08;100132.34;;;0.66;82.90
65329;BME280;51941;52.210;5.158;2024-01-15T08:12:34;100150.72;;;0.71;83.19
65329;BME280;51941;52.210;5.158;2024-01-15T08:15:01;100159.88;;;0.74;82.97
65329;BME280;51941;52.210;5.158;2024-01-15T08:17:28;100165.97;;;0.74;82.76
65329;BME280;51941;52.210;5.158;2024-01-15T08:19:55;100177.44;;;0.49;83.19
65329;BME280;51941;52.210;5.158;2024-01-15T08:22:21;100164.03;;;0.54;83.27
65329;BME280;51941;52.210;5.158;2024-01-15T08:24:50;100165.56;;;0.55;83.20
65329;BME280;51941;52.210;5.158;2024-01-15T08:27:17;100166.19;;;0.61;83.24
65329;BME280;51941;52.210;5.158;2024-01-15T08:29:45;100156.25;;;0.49;83.72
65329;BME280;51941;52.210;5.158;2024-01-15T08:32:12;100135.59;;;0.63;83.62
65329;BME280;51941;52.210;5.158;2024-01-15T08:34:40;100137.78;;;0.70;83.57
65329;BME280;51941;52.210;5.158;2024-01-15T08:37:07;100133.53;;;0.77;82.71
65329;BME280;51941;52.210;5.158;2024-01-15T08:39:34;100135.25;;;0.73;82.73
65329;BME280;51941;52.210;5.158;2024-01-15T08:42:05;100140.66;;;0.86;82.31
65329;BME280;51941;52.210;5.158;2024-01-15T08:44:32;100137.41;;;0.80;82.40
65329;BME280;51941;52.210;5.158;2024-01-15T08:46:58;100141.88;;;0.88;82.31
65329;BME280;51941;52.210;5.158;2024-01-15T08:49:25;100138.13;;;0.89;82.02
65329;BME280;51941;52.210;5.158;2024-01-15T08:51:52;100147.63;;;0.90;81.97
65329;BME280;51941;52.210;5.158;2024-01-15T08:54:18;100175.50;;;0.96;82.24
65329;BME280;51941;52.210;5.158;2024-01-15T08:56:46;100169.34;;;0.84;81.70
65329;BME280;51941;52.210;5.158;2024-01-15T08:59:14;100151.25;;;0.56;82.04
65329;BME280;51941;52.210;5.158;2024-01-15T09:01:41;100146.31;;;0.75;81.90
65329;BME280;51941;52.210;5.158;2024-01-15T09:04:08;100152.84;;;0.78;81.79
65329;BME280;51941;52.210;5.158;2024-01-15T09:06:35;100148.31;;;0.78;81.87
65329;BME280;51941;52.210;5.158;2024-01-15T09:09:01;100145.03;;;0.82;81.91
65329;BME280;51941;52.210;5.158;2024-01-15T09:11:29;100144.28;;;0.81;81.56
65329;BME280;51941;52.210;5.158;2024-01-15T09:13:57;100145.50;;;0.84;81.57
65329;BME280;51941;52.210;5.158;2024-01-15T09:16:25;100145.94;;;0.86;81.83
65329;BME280;51941;52.210;5.158;2024-01-15T09:18:52;100139.53;;;0.87;82.08
65329;BME280;51941;52.210;5.158;2024-01-15T09:21:19;100139.69;;;0.90;82.13
65329;BME280;51941;52.210;5.158;2024-01-15T09:23:45;100145.56;;;0.96;81.83
65329;BME280;51941;52.210;5.158;2024-01-15T09:26:12;100144.56;;;1.09;82.13
65329;BME280;51941;52.210;5.158;2024-01-15T09:28:39;100153.16;;;1.27;81.82
65329;BME280;51941;52.210;5.158;2024-01-15T09:31:06;100150.88;;;1.38;81.34
65329;BME280;51941;52.210;5.158;2024-01-15T09:33:34;100148.81;;;1.44;81.10
65329;BME280;51941;52.210;5.158;2024-01-15T09:36:01;100149.50;;;1.41;80.72
65329;BME280;51941;52.210;5.158;2024-01-15T09:38:29;100148.31;;;1.29;80.67
65329;BME280;51941;52.210;5.158;2024-01-15T09:40:57;100140.81;;;1.31;80.97
65329;BME280;51941;52.210;5.158;2024-01-15T09:43:24;100143.78;;;1.30;81.38
65329;BME280;51941;52.210;5.158;2024-01-15T09:45:51;100141.78;;;1.27;81.01
65329;BME280;51941;52.210;5.158;2024-01-15T09:48:17;100140.03;;;1.31;81.06
65329;BME280;51941;52.210;5.158;2024-01-15T09:50:45;100145.72;;;1.42;81.24
65329;BME280;51941;52.210;5.158;2024-01-15T09:53:14;100152.91;;;1.62;81.15
65329;BME280;51941;52.210;5.158;2024-01-15T09:55:41;100147.88;;;1.82;81.12
65329;BME280;51941;52.210;5.158;2024-01-15T09:58:08;100152.91;;;1.95;80.43
65329;BME280;51941;52.210;5.158;2024-01-15T10:00:35;100149.38;;;2.04;80.26
65329;BME280;51941;52.210;5.158;2024-01-15T10:03:04;100144.19;;;2.07;79.59
65329;BME280;51941;52.210;5.158;2024-01-15T10:05:32;100145.22;;;2.15;79.14
65329;BME280;51941;52.210;5.158;2024-01-15T10:08:00;100158.03;;;2.13;78.42
65329;BME280;51941;52.210;5.158;2024-01-15T10:10:27;100167.22;;;2.03;78.90
65329;BME280;51941;52.210;5.158;2024-01-15T10:12:54;100162.69;;;1.83;79.21
65329;BME280;51941;52.210;5.158;2024-01-15T10:15:22;100170.13;;;1.56;79.85
65329;BME280;51941;52.210;5.158;2024-01-15T10:17:49;100168.59;;;1.67;79.94
65329;BME280;51941;52.210;5.158;2024-01-15T10:20:16;100172.34;;;1.54;80.30
65329;BME280;51941;52.210;5.158;2024-01-15T10:22:44;100171.03;;;1.60;80.56
65329;BME280;51941;52.210;5.158;2024-01-15T10:25:14;100173.88;;;1.55;80.08
65329;BME280;51941;52.210;5.158;2024-01-15T10:27:41;100174.63;;;1.55;80.16
65329;BME280;51941;52.210;5.158;2024-01-15T10:30:09;100167.13;;;1.57;79.96
65329;BME280;51941;52.210;5.158;2024-01-15T10:32:36;100165.59;;;1.56;80.16
65329;BME280;51941;52.210;5.158;2024-01-15T10:35:03;100161.75;;;1.66;80.15
65329;BME280;51941;52.210;5.158;2024-01-15T10:37:33;100174.94;;;1.75;79.92
65329;BME280;51941;52.210;5.158;2024-01-15T10:40:01;100178.84;;;1.77;79.87
65329;BME280;51941;52.210;5.158;2024-01-15T10:42:30;100172.28;;;1.75;79.31
65329;BME280;51941;52.210;5.158;2024-01-15T10:44:57;100169.56;;;1.84;79.83
65329;BME280;51941;52.210;5.158;2024-01-15T10:47:23;100182.16;;;1.74;79.32
65329;BME280;51941;52.210;5.158;2024-01-15T10:49:50;100192.03;;;1.86;78.86
65329;BME280;51941;52.210;5.158;2024-01-15T10:52:18;100182.06;;;1.83;77.67
65329;BME280;51941;52.210;5.158;2024-01-15T10:54:45;100187.66;;;1.69;77.34
65329;BME280;51941;52.210;5.158;2024-01-15T10:57:13;100203.97;;;1.59;77.24
65329;BME280;51941;52.210;5.158;2024-01-15T10:59:42;100202.16;;;1.51;77.46
65329;BME280;51941;52.210;5.158;2024-01-15T11:02:09;100204.44;;;1.40;78.52
65329;BME280;51941;52.210;5.158;2024-01-15T11:04:36;100205.78;;;1.46;78.01
65329;BME280;51941;52.210;5.158;2024-01-15T11:07:05;100206.28;;;1.40;78.50
65329;BME280;51941;52.210;5.158;2024-01-15T11:09:32;100207.91;;;1.32;78.67
65329;BME280;51941;52.210;5.158;2024-01-15T11:12:07;100202.97;;;1.22;78.95
65329;BME280;51941;52.210;5.158;2024-01-15T11:14:34;100207.09;;;1.40;79.36
65329;BME280;51941;52.210;5.158;2024-01-15T11:17:03;100204.53;;;1.44;78.80
65329;BME280;51941;52.210;5.158;2024-01-15T11:19:37;100204.50;;;1.52;78.62
65329;BME280;51941;52.210;5.158;2024-01-15T11:22:07;100195.41;;;1.53;78.81
65329;BME280;51941;52.210;5.158;2024-01-15T11:24:35;100193.81;;;1.61;79.13
65329;BME280;51941;52.210;5.158;2024-01-15T11:27:02;100197.50;;;1.69;78.65
65329;BME280;51941;52.210;5.158;2024-01-15T11:29:30;100195.59;;;1.69;78.46
65329;BME280;51941;52.210;5.158;2024-01-15T11:31:59;100198.84;;;1.75;78.63
65329;BME280;51941;52.210;5.158;2024-01-15T11:34:55;100201.91;;;1.65;78.75
65329;BME280;51941;52.210;5.158;2024-01-15T11:37:24;100213.09;;;1.70;78.58
65329;BME280;51941;52.210;5.158;2024-01-15T11:39:52;100213.69;;;1.55;80.03
65329;BME280;51941;52.210;5.158;2024-01-15T11:42:20;100217.50;;;1.45;79.73
65329;BME280;51941;52.210;5.158;2024-01-15T11:44:47;100210.03;;;1.60;79.04
65329;BME280;51941;52.210;5.158;2024-01-15T11:47:14;100209.72;;;1.61;79.80
65329;BME280;51941;52.210;5.158;2024-01-15T11:49:58;100210.03;;;1.60;79.60
65329;BME280;51941;52.210;5.158;2024-01-15T11:52:26;100218.94;;;1.64;79.13
65329;BME280;51941;52.210;5.158;2024-01-15T11:55:01;100214.59;;;1.59;79.77
65329;BME280;51941;52.210;5.158;2024-01-15T11:57:40;100212.78;;;1.72;78.90
65329;BME280;51941;52.210;5.158;2024-01-15T12:00:09;100228.31;;;1.82;79.29
65329;BME280;51941;52.210;5.158;2024-01-15T12:02:40;100216.84;;;1.90;78.14
65329;BME280;51941;52.210;5.158;2024-01-15T12:05:09;100214.50;;;1.89;77.62
65329;BME280;51941;52.210;5.158;2024-01-15T12:07:38;100218.88;;;2.06;78.23
65329;BME280;51941;52.210;5.158;2024-01-15T12:10:08;100224.34;;;2.09;77.29
65329;BME280;51941;52.210;5.158;2024-01-15T12:12:43;100218.31;;;2.33;77.60
65329;BME280;51941;52.210;5.158;2024-01-15T12:15:12;100218.88;;;2.51;76.11
65329;BME280;51941;52.210;5.158;2024-01-15T12:17:39;100224.00;;;2.56;76.10
65329;BME280;51941;52.210;5.158;2024-01-15T12:20:06;100220.22;;;2.70;76.58
65329;BME280;51941;52.210;5.158;2024-01-15T12:22:34;100219.69;;;2.76;76.72
65329;BME280;51941;52.210;5.158;2024-01-15T12:25:02;100246.94;;;2.73;76.73
65329;BME280;51941;52.210;5.158;2024-01-15T12:27:28;100271.34;;;2.09;76.05
65329;BME280;51941;52.210;5.158;2024-01-15T12:29:55;100266.19;;;1.70;76.41
65329;BME280;51941;52.210;5.158;2024-01-15T12:32:23;100264.13;;;1.25;77.70
65329;BME280;51941;52.210;5.158;2024-01-15T12:34:50;100274.25;;;0.93;79.33
65329;BME280;51941;52.210;5.158;2024-01-15T12:37:18;100268.50;;;0.83;80.28
65329;BME280;51941;52.210;5.158;2024-01-15T12:39:47;100257.44;;;0.89;79.87
65329;BME280;51941;52.210;5.158;2024-01-15T12:42:14;100245.72;;;0.90;80.23
65329;BME280;51941;52.210;5.158;2024-01-15T12:44:42;100243.81;;;1.00;79.01
65329;BME280;51941;52.210;5.158;2024-01-15T12:47:09;100255.25;;;0.91;78.69
65329;BME280;51941;52.210;5.158;2024-01-15T12:49:36;100256.31;;;0.99;77.80
65329;BME280;51941;52.210;5.158;2024-01-15T12:52:03;100259.88;;;1.03;77.69
65329;BME280;51941;52.210;5.158;2024-01-15T12:54:30;100266.34;;;1.14;77.49
65329;BME280;51941;52.210;5.158;2024-01-15T12:56:58;100270.44;;;1.12;77.87
65329;BME280;51941;52.210;5.158;2024-01-15T12:59:27;100272.25;;;1.20;77.21
65329;BME280;51941;52.210;5.158;2024-01-15T13:01:53;100263.50;;;1.28;77.06